Flight Track Log - Related Links

Times and Time Zones

All times are in EDT time to prevent confusion due to time zone crossing. See the SWA3853 flight status page for this flight to view local times or setup timezone preferences in your user account.

Time Position Orientation Groundspeed Altitude Reporting Facility
EDT Latitude Longitude Course Direction KTS MPH feet Rate Location/Type
Fri 02:54:51 PM 39.3236 -94.7211 334° Northwest 160 184 2,200  Level Kansas City Center
Fri 02:55:52 PM 39.3475 -94.7700 302° West 198 228 4,700 2,390 Climbing Kansas City Center
Fri 02:56:54 PM 39.2778 -94.8017 199° South 296 341 7,100 3,242 Climbing Kansas City Center
Fri 02:57:56 PM 39.1858 -94.8294 193° South 301 346 11,400 3,339 Climbing Kansas City Center
Fri 02:58:58 PM 39.0950 -94.8569 193° South 349 402 14,000 3,339 Climbing Kansas City Center
Fri 03:00:00 PM 39.0019 -94.8856 193° South 356 410 18,300 3,823 Climbing Kansas City Center
Fri 03:01:02 PM 38.8981 -94.9156 193° South 344 396 21,900 2,952 Climbing Kansas City Center
Fri 03:02:04 PM 38.8028 -94.9431 193° South 362 417 24,400 2,565 Climbing Kansas City Center
Fri 03:03:06 PM 38.6892 -94.9764 193° South 372 428 27,200 2,274 Climbing Kansas City Center
Fri 03:04:08 PM 38.5889 -95.0056 193° South 384 442 29,100 2,098 Climbing Kansas City Center
Fri 03:05:09 PM 38.4697 -95.0397 193° South 391 450 31,500 1,902 Climbing Kansas City Center
Fri 03:06:11 PM 38.3653 -95.0719 194° South 399 459 33,000 1,500 Climbing Kansas City Center
Fri 03:07:13 PM 38.2592 -95.1011 192° South 405 466 34,600 1,452 Climbing Kansas City Center
Fri 03:08:15 PM 38.1328 -95.1400 194° South 414 476 36,000 677 Climbing Kansas City Center
Fri 03:09:17 PM 38.0233 -95.1789 196° South 425 489 36,000  Level Kansas City Center
Fri 03:10:19 PM 37.8975 -95.2206 195° South 424 488 36,000  Level Kansas City Center
Fri 03:11:21 PM 37.7833 -95.2586 195° South 423 487 36,000  Level Kansas City Center
Fri 03:12:23 PM 37.6694 -95.2994 196° South 423 487 36,000  Level Kansas City Center
Fri 03:13:25 PM 37.5564 -95.3372 195° South 421 484 36,000  Level Kansas City Center
Fri 03:14:27 PM 37.4222 -95.3814 195° South 416 479 36,000  Level Kansas City Center
Fri 03:15:29 PM 37.3089 -95.4194 195° South 419 482 36,000  Level Kansas City Center
Fri 03:16:31 PM 37.1956 -95.4586 195° South 422 486 36,000  Level Kansas City Center
Fri 03:17:33 PM 37.0819 -95.4964 195° South 421 484 36,000  Level Kansas City Center
Fri 03:18:35 PM 36.9683 -95.5339 195° South 422 486 36,000  Level Kansas City Center
Fri 03:19:37 PM 36.8542 -95.5719 195° South 423 487 36,000  Level Kansas City Center
Fri 03:20:39 PM 36.7381 -95.6094 195° South 429 494 36,000  Level Kansas City Center
Fri 03:21:41 PM 36.6006 -95.6556 195° South 430 495 36,000  Level Kansas City Center
Fri 03:22:43 PM 36.4914 -95.6908 195° South 432 497 36,000  Level Kansas City Center
Fri 03:23:45 PM 36.3756 -95.7289 195° South 431 496 36,000  Level Kansas City Center
Fri 03:24:47 PM 36.2558 -95.7683 195° South 431 496 36,000  Level Kansas City Center
Fri 03:25:49 PM 36.1378 -95.7697 181° South 440 506 36,000  Level Kansas City Center
Fri 03:26:51 PM 35.9975 -95.7236 165° South 438 504 36,000  Level Kansas City Center
Fri 03:27:53 PM 35.8800 -95.6858 165° South 437 503 36,000  Level Kansas City Center
Fri 03:28:54 PM 35.7625 -95.6489 166° South 436 502 36,000  Level Kansas City Center
Fri 03:29:56 PM 35.6450 -95.6133 166° South 436 502 36,000  Level Kansas City Center
Fri 03:30:16 PM 35.5933 -95.5961 165° South 431 496 36,000  Level Fort Worth Center
Fri 03:31:16 PM 35.4758 -95.5578 165° South 436 502 36,000  Level Fort Worth Center
Fri 03:32:16 PM 35.3567 -95.5225 166° South 436 502 36,000 -500 Level Fort Worth Center
Fri 03:33:16 PM 35.2358 -95.5453 189° South 419 482 35,000 -1,000 Descending Fort Worth Center
Fri 03:34:16 PM 35.1219 -95.5936 199° South 425 489 34,000 -1,000 Descending Fort Worth Center
Fri 03:35:16 PM 35.0100 -95.6392 198° South 425 489 33,000 -1,000 Descending Fort Worth Center
Fri 03:36:16 PM 34.8981 -95.6869 199° South 431 496 32,000 -500 Descending Fort Worth Center
Fri 03:37:16 PM 34.7817 -95.7297 197° South 436 502 32,000  Level Fort Worth Center
Fri 03:38:16 PM 34.6697 -95.7775 199° South 436 502 32,000 -600 Level Fort Worth Center
Fri 03:39:16 PM 34.5617 -95.8197 198° South 429 494 30,800 -1,650 Descending Fort Worth Center
Fri 03:40:16 PM 34.4539 -95.8647 199° South 418 481 28,700 -2,100 Descending Fort Worth Center
Fri 03:41:16 PM 34.3500 -95.9067 198° South 406 467 26,600 -2,050 Descending Fort Worth Center
Fri 03:42:16 PM 34.2483 -95.9461 198° South 400 460 24,600 -1,450 Descending Fort Worth Center
Fri 03:43:16 PM 34.1422 -95.9906 199° South 399 459 23,700 -950 Descending Fort Worth Center
Fri 03:44:16 PM 34.0261 -96.0353 198° South 417 480 22,700 -1,000 Descending Fort Worth Center
Fri 03:45:16 PM 33.9139 -96.0819 199° South 430 495 21,700 -1,600 Descending Fort Worth Center
Fri 03:46:16 PM 33.8161 -96.1183 197° South 430 495 19,500 -2,350 Descending Fort Worth Center
Fri 03:47:16 PM 33.7017 -96.1625 198° South 400 460 17,000 -2,400 Descending Fort Worth Center
Fri 03:48:16 PM 33.6083 -96.2014 199° South 395 455 14,700 -2,550 Descending Fort Worth Center
Fri 03:49:16 PM 33.4958 -96.2453 198° South 395 455 11,900 -2,100 Descending Fort Worth Center
Fri 03:50:16 PM 33.4086 -96.2786 198° South 379 436 10,500 -1,050 Descending Fort Worth Center
Fri 03:51:16 PM 33.3128 -96.3172 199° South 353 406 9,800 -950 Descending Fort Worth Center
Fri 03:52:16 PM 33.2464 -96.3603 208° Southwest 301 346 8,600 -1,100 Descending Fort Worth Center
Fri 03:53:16 PM 33.1947 -96.4231 225° Southwest 274 315 7,600 -1,100 Descending Fort Worth Center
Fri 03:54:16 PM 33.1306 -96.4758 215° Southwest 274 315 6,400 -1,300 Descending Fort Worth Center
Fri 03:55:16 PM 33.0703 -96.5283 216° Southwest 274 315 5,000 -1,200 Descending Fort Worth Center
Fri 03:56:16 PM 33.0081 -96.5811 215° Southwest 281 323 4,000 -706 Descending Fort Worth Center
Fri 03:57:15 PM 32.9519 -96.6261 214° Southwest 281 323 3,600 -606 Descending Fort Worth Center
Fri 03:58:05 PM 32.9000 -96.6667 213° Southwest 261 300 2,900 -346 Descending Dallas / Fort Worth TRACON
Fri 03:58:59 PM 32.8500 -96.7000 209° Southwest 207 238 3,000  Climbing Dallas / Fort Worth TRACON
Fri 03:59:59 PM 32.8000 -96.7500 220° Southwest 178 205 2,900 -682 Descending Dallas / Fort Worth TRACON
Fri 04:01:11 PM 32.8000 -96.8000 270° West 112 129 1,500 -955 Descending Dallas / Fort Worth TRACON
Fri 04:02:11 PM 32.8333 -96.8167 337° Northwest 128 147 800 162 Descending Dallas / Fort Worth TRACON
Fri 04:04:16 PM 32.7797 -96.8228 185° South 65 75 2,000 357 Climbing Fort Worth Center
Fri 04:05:16 PM 32.7881 -96.8253 346° North 36 41 1,900 -100 Descending Fort Worth Center
Fri 04:07:00 PM 32.8333 -96.8500 292° West  Level FlightAware Approximate
Fri 04:14:00 PM 32.8471 -96.8518 292° West  Level Estimated
Fri 04:15:00 PM 32.8471 -96.8518 292° West  Level Estimated
Fri 04:16:00 PM 32.8471 -96.8518 292° West  Level Estimated

Login

Don't have an account? Register now (free) for customized features, flight alerts, and more!